Time;durP1;ratioP1;P1;durP2;ratioP2;P2;SDS_P1;SDS_P2;PMS_P1;PMS_P2;Temp;Humidity;BMP_temperature;BMP_pressure;BME280_temperature;BME280_humidity;BME280_pressure;Samples;Min_cycle;Max_cycle;Signal;HPM_P1;HPM_P2
2023/04/20 00:01:09;;;;;;;;;;;;;;;9.47;68.49;101954.59;7357136;19;19938;-66
2023/04/20 00:03:36;;;;;;;;;;;;;;;9.47;68.38;101945.88;7359488;19;20443;-64
2023/04/20 00:06:04;;;;;;;;;;;;;;;9.48;69.95;101951.00;7359524;19;19994;-61
2023/04/20 00:08:31;;;;;;;;;;;;;;;9.50;69.29;101956.97;7358293;19;19940;-63
2023/04/20 00:10:58;;;;;;;;;;;;;;;9.48;68.81;101947.53;7356863;19;20877;-62
2023/04/20 00:13:26;;;;;;;;;;;;;;;9.47;68.77;101948.50;7359088;19;21756;-62
2023/04/20 00:15:53;;;;;;;;;;;;;;;9.48;68.95;101951.00;7356697;19;19910;-64
2023/04/20 00:18:20;;;;;;;;;;;;;;;9.46;69.72;101950.28;7359456;19;19915;-64
2023/04/20 00:20:47;;;;;;;;;;;;;;;9.42;69.25;101941.81;7359740;19;19922;-62
2023/04/20 00:23:14;;;;;;;;;;;;;;;9.40;70.04;101943.69;7360440;19;19933;-62
2023/04/20 00:25:41;;;;;;;;;;;;;;;9.40;69.62;101934.97;7356810;19;19942;-64
2023/04/20 00:28:08;;;;;;;;;;;;;;;9.41;70.29;101931.41;7361522;19;21582;-63
2023/04/20 00:30:36;;;;;;;;;;;;;;;9.40;70.05;101934.97;7357155;19;20050;-62
2023/04/20 00:33:03;;;;;;;;;;;;;;;9.38;70.36;101934.28;7359221;19;20618;-63
2023/04/20 00:35:30;;;;;;;;;;;;;;;9.36;70.47;101937.00;7359571;19;20007;-61
2023/04/20 00:37:57;;;;;;;;;;;;;;;9.37;71.49;101932.59;7358994;19;19923;-63
2023/04/20 00:40:24;;;;;;;;;;;;;;;9.38;71.19;101929.03;7357132;19;19914;-63
2023/04/20 00:42:51;;;;;;;;;;;;;;;9.40;71.70;101932.34;7358720;19;19922;-65
2023/04/20 00:45:20;;;;;;;;;;;;;;;9.34;71.66;101927.59;7355323;19;19921;-63
2023/04/20 00:47:48;;;;;;;;;;;;;;;9.31;72.28;101917.31;7355416;19;20157;-62
2023/04/20 00:50:15;;;;;;;;;;;;;;;9.31;73.02;101920.78;7359829;19;19921;-63
2023/04/20 00:52:42;;;;;;;;;;;;;;;9.32;73.17;101916.38;7358302;19;20400;-64
2023/04/20 00:55:09;;;;;;;;;;;;;;;9.33;73.96;101916.25;7355584;19;19919;-61
2023/04/20 00:57:36;;;;;;;;;;;;;;;9.32;73.92;101903.22;7357635;19;19943;-63
2023/04/20 01:00:05;;;;;;;;;;;;;;;9.33;73.93;101908.38;7353591;19;20958;-63
2023/04/20 01:02:32;;;;;;;;;;;;;;;9.34;74.21;101909.22;7356536;19;20391;-62
2023/04/20 01:05:00;;;;;;;;;;;;;;;9.31;74.51;101905.03;7354667;19;19923;-59
2023/04/20 01:07:28;;;;;;;;;;;;;;;9.32;75.01;101905.84;7359743;19;20476;-61
2023/04/20 01:09:56;;;;;;;;;;;;;;;9.32;75.34;101901.44;7357444;19;19915;-61
2023/04/20 01:12:22;;;;;;;;;;;;;;;9.32;75.41;101898.81;7357932;19;20431;-61
2023/04/20 01:14:50;;;;;;;;;;;;;;;9.25;75.56;101891.50;7361298;19;19926;-62
2023/04/20 01:17:17;;;;;;;;;;;;;;;9.25;76.13;101894.13;7362710;19;20262;-62
2023/04/20 01:19:44;;;;;;;;;;;;;;;9.24;76.08;101893.34;7364501;19;19907;-62
2023/04/20 01:22:14;;;;;;;;;;;;;;;9.22;76.49;101887.34;7364147;19;19911;-62
2023/04/20 01:24:41;;;;;;;;;;;;;;;9.20;77.00;101884.00;7366929;19;20034;-63
2023/04/20 01:27:08;;;;;;;;;;;;;;;9.23;77.08;101880.31;7363914;19;19916;-62
2023/04/20 01:29:35;;;;;;;;;;;;;;;9.19;77.31;101879.72;7362484;19;19935;-62
2023/04/20 01:32:02;;;;;;;;;;;;;;;9.21;77.69;101880.41;7363180;19;20395;-63
2023/04/20 01:34:29;;;;;;;;;;;;;;;9.12;77.80;101868.00;7364684;19;19942;-62
2023/04/20 01:36:56;;;;;;;;;;;;;;;9.15;77.97;101878.25;7363377;19;19918;-63
2023/04/20 01:39:23;;;;;;;;;;;;;;;9.10;78.34;101869.91;7364634;19;19919;-61
2023/04/20 01:41:50;;;;;;;;;;;;;;;9.15;78.56;101872.16;7362206;19;20518;-63
2023/04/20 01:44:17;;;;;;;;;;;;;;;9.14;79.44;101865.28;7362689;19;20246;-63
2023/04/20 01:46:44;;;;;;;;;;;;;;;9.18;78.88;101870.16;7362039;19;19918;-62
2023/04/20 01:49:11;;;;;;;;;;;;;;;9.22;79.00;101866.34;7360400;19;19926;-62
2023/04/20 01:51:38;;;;;;;;;;;;;;;9.26;78.94;101856.44;7359946;19;19934;-63
2023/04/20 01:54:05;;;;;;;;;;;;;;;9.29;79.05;101858.84;7364030;19;19923;-61
2023/04/20 01:56:32;;;;;;;;;;;;;;;9.28;79.14;101855.38;7359052;19;19950;-61
2023/04/20 01:58:59;;;;;;;;;;;;;;;9.28;79.17;101858.00;7361020;19;19934;-63
2023/04/20 02:01:26;;;;;;;;;;;;;;;9.33;78.90;101860.25;7361372;19;19918;-62
2023/04/20 02:03:53;;;;;;;;;;;;;;;9.28;79.28;101857.16;7360394;19;20595;-63
2023/04/20 02:06:20;;;;;;;;;;;;;;;9.27;79.10;101855.47;7364422;19;19921;-63
2023/04/20 02:08:47;;;;;;;;;;;;;;;9.23;79.36;101854.06;7365435;19;19948;-62
2023/04/20 02:11:14;;;;;;;;;;;;;;;9.22;79.60;101853.22;7362389;19;21079;-62
2023/04/20 02:13:41;;;;;;;;;;;;;;;9.22;80.19;101852.38;7362820;19;21583;-63
2023/04/20 02:16:08;;;;;;;;;;;;;;;9.23;80.38;101857.53;7359504;19;20599;-62
2023/04/20 02:18:36;;;;;;;;;;;;;;;9.26;80.71;101853.81;7365950;19;20130;-64
2023/04/20 02:21:04;;;;;;;;;;;;;;;9.29;80.45;101850.97;7360407;19;19918;-63
2023/04/20 02:23:31;;;;;;;;;;;;;;;9.33;80.00;101852.38;7361608;19;19922;-63
2023/04/20 02:25:58;;;;;;;;;;;;;;;9.31;79.72;101849.88;7359795;19;19923;-63
2023/04/20 02:28:25;;;;;;;;;;;;;;;9.31;79.98;101849.03;7363878;19;21585;-63
2023/04/20 02:30:52;;;;;;;;;;;;;;;9.28;80.38;101844.88;7356219;19;19915;-60
2023/04/20 02:33:20;;;;;;;;;;;;;;;9.27;80.52;101843.19;7362511;19;19970;-59
2023/04/20 02:35:47;;;;;;;;;;;;;;;9.27;80.38;101837.09;7359857;19;19919;-62
2023/04/20 02:38:14;;;;;;;;;;;;;;;9.26;80.74;101835.41;7361512;19;20279;-63
2023/04/20 02:40:41;;;;;;;;;;;;;;;9.23;80.43;101846.19;7360410;19;19917;-62
2023/04/20 02:43:09;;;;;;;;;;;;;;;9.25;80.48;101846.88;7360694;19;19926;-61
2023/04/20 02:45:35;;;;;;;;;;;;;;;9.20;80.67;101849.03;7357717;19;19934;-62
2023/04/20 02:48:03;;;;;;;;;;;;;;;9.17;80.91;101844.03;7363237;19;20337;-62
2023/04/20 02:50:30;;;;;;;;;;;;;;;9.17;81.05;101844.03;7364272;19;19919;-62
2023/04/20 02:52:57;;;;;;;;;;;;;;;9.14;81.02;101836.41;7360730;19;20020;-61
2023/04/20 02:55:24;;;;;;;;;;;;;;;9.16;81.78;101844.97;7361339;19;20004;-63
2023/04/20 02:57:51;;;;;;;;;;;;;;;9.15;81.06;101852.00;7363691;19;19927;-66
2023/04/20 03:00:18;;;;;;;;;;;;;;;9.16;81.32;101850.22;7358114;19;19940;-64
2023/04/20 03:02:45;;;;;;;;;;;;;;;9.11;80.94;101834.81;7362303;19;19922;-62
2023/04/20 03:05:12;;;;;;;;;;;;;;;9.15;81.10;101835.41;7360654;19;19922;-63
2023/04/20 03:07:39;;;;;;;;;;;;;;;9.15;81.30;101841.50;7359105;19;20010;-62
2023/04/20 03:10:07;;;;;;;;;;;;;;;9.16;81.25;101837.09;7355180;19;20289;-63
2023/04/20 03:12:34;;;;;;;;;;;;;;;9.13;80.81;101832.94;7361977;19;20411;-64
2023/04/20 03:15:03;;;;;;;;;;;;;;;9.13;81.47;101832.94;7359378;19;19918;-63
2023/04/20 03:17:31;;;;;;;;;;;;;;;9.10;80.90;101848.06;7359357;19;19925;-63
2023/04/20 03:19:58;;;;;;;;;;;;;;;9.10;81.10;101842.81;7361438;19;19970;-63
2023/04/20 03:22:25;;;;;;;;;;;;;;;9.08;80.85;101836.84;7360846;19;19921;-62
2023/04/20 03:24:52;;;;;;;;;;;;;;;9.11;80.92;101836.59;7362320;19;19918;-63
2023/04/20 03:27:19;;;;;;;;;;;;;;;9.11;81.05;101826.09;7359581;19;20333;-62
2023/04/20 03:29:47;;;;;;;;;;;;;;;9.11;81.05;101845.31;7355432;19;20042;-62
2023/04/20 03:32:14;;;;;;;;;;;;;;;9.14;81.53;101836.41;7358823;19;19927;-63
2023/04/20 03:34:41;;;;;;;;;;;;;;;9.15;81.79;101833.63;7361507;19;19919;-62
2023/04/20 03:37:08;;;;;;;;;;;;;;;9.16;81.93;101840.56;7361373;19;19926;-61
2023/04/20 03:39:35;;;;;;;;;;;;;;;9.19;81.38;101834.25;7361242;19;20316;-62
2023/04/20 03:42:02;;;;;;;;;;;;;;;9.15;80.37;101841.50;7361393;19;20226;-63
2023/04/20 03:44:29;;;;;;;;;;;;;;;9.14;80.60;101839.03;7357197;19;19930;-63
2023/04/20 03:46:56;;;;;;;;;;;;;;;9.11;80.65;101832.19;7359133;19;19919;-63
2023/04/20 03:49:24;;;;;;;;;;;;;;;9.11;81.02;101847.09;7358974;19;19919;-62
2023/04/20 03:51:51;;;;;;;;;;;;;;;9.04;81.30;101838.06;7358108;19;20366;-62
2023/04/20 03:54:18;;;;;;;;;;;;;;;9.07;81.25;101848.31;7361499;19;19974;-64
2023/04/20 03:56:45;;;;;;;;;;;;;;;9.07;80.60;101850.94;7358185;19;19926;-63
2023/04/20 03:59:12;;;;;;;;;;;;;;;9.05;80.71;101840.53;7355564;19;19911;-63
2023/04/20 04:01:39;;;;;;;;;;;;;;;8.99;81.36;101847.09;7358779;19;19935;-65
2023/04/20 04:04:06;;;;;;;;;;;;;;;9.01;81.24;101849.59;7357850;19;19923;-62
2023/04/20 04:06:34;;;;;;;;;;;;;;;9.02;81.60;101840.78;7360175;19;19919;-62
2023/04/20 04:09:01;;;;;;;;;;;;;;;9.01;81.39;101846.97;7359047;19;19938;-61
2023/04/20 04:11:29;;;;;;;;;;;;;;;9.02;80.47;101852.13;7355979;19;19955;-62
2023/04/20 04:13:58;;;;;;;;;;;;;;;9.04;80.20;101845.94;7357222;19;19995;-66
2023/04/20 04:16:25;;;;;;;;;;;;;;;9.03;81.47;101850.34;7357590;19;19933;-63
2023/04/20 04:18:52;;;;;;;;;;;;;;;9.05;80.51;101850.19;7358252;19;20260;-63
2023/04/20 04:21:19;;;;;;;;;;;;;;;9.04;80.79;101854.63;7359080;19;20955;-64
2023/04/20 04:23:46;;;;;;;;;;;;;;;9.03;80.67;101847.72;7361144;19;20274;-63
2023/04/20 04:26:13;;;;;;;;;;;;;;;9.02;80.92;101846.88;7357670;19;19937;-62
2023/04/20 04:28:40;;;;;;;;;;;;;;;8.97;80.45;101851.63;7357803;19;20310;-62
2023/04/20 04:31:08;;;;;;;;;;;;;;;8.99;81.30;101847.09;7356323;19;19926;-62
2023/04/20 04:33:35;;;;;;;;;;;;;;;9.04;79.55;101856.44;7357611;19;20753;-63
2023/04/20 04:36:03;;;;;;;;;;;;;;;9.01;79.61;101858.31;7355335;19;19915;-62
2023/04/20 04:38:32;;;;;;;;;;;;;;;9.00;79.35;101856.66;7357398;19;19923;-61
2023/04/20 04:40:59;;;;;;;;;;;;;;;9.00;79.94;101855.81;7355193;19;19927;-64
2023/04/20 04:43:26;;;;;;;;;;;;;;;9.00;79.64;101850.56;7358489;19;19922;-63
2023/04/20 04:45:54;;;;;;;;;;;;;;;8.99;79.63;101851.50;7355311;19;19926;-63
2023/04/20 04:48:22;;;;;;;;;;;;;;;9.01;79.25;101852.22;7356500;19;20039;-63
2023/04/20 04:50:49;;;;;;;;;;;;;;;9.02;78.86;101853.91;7357955;19;19923;-64
2023/04/20 04:53:16;;;;;;;;;;;;;;;9.04;78.96;101859.06;7354389;19;19922;-63
2023/04/20 04:55:43;;;;;;;;;;;;;;;9.01;79.08;101854.84;7354903;19;19926;-64
2023/04/20 04:58:10;;;;;;;;;;;;;;;9.05;79.41;101852.81;7362285;19;19927;-63
2023/04/20 05:00:37;;;;;;;;;;;;;;;9.09;77.85;101860.38;7357237;19;19919;-62
2023/04/20 05:03:04;;;;;;;;;;;;;;;9.09;77.90;101852.50;7357368;19;19922;-63
2023/04/20 05:05:31;;;;;;;;;;;;;;;9.11;78.06;101855.00;7357846;19;20251;-63
2023/04/20 05:07:58;;;;;;;;;;;;;;;9.14;77.47;101857.41;7358476;19;19915;-62
2023/04/20 05:10:25;;;;;;;;;;;;;;;9.13;77.38;101859.19;7356334;19;20520;-63
2023/04/20 05:12:52;;;;;;;;;;;;;;;9.14;76.64;101870.53;7355958;19;19927;-63
2023/04/20 05:15:19;;;;;;;;;;;;;;;9.15;77.14;101862.50;7352188;19;20033;-63
2023/04/20 05:17:48;;;;;;;;;;;;;;;9.08;76.59;101871.81;7353751;19;20448;-63
2023/04/20 05:20:15;;;;;;;;;;;;;;;9.08;76.60;101863.94;7354552;19;19923;-64
2023/04/20 05:22:42;;;;;;;;;;;;;;;9.10;76.23;101874.31;7357384;19;19954;-63
2023/04/20 05:25:10;;;;;;;;;;;;;;;9.06;76.22;101878.13;7357776;19;19927;-64
2023/04/20 05:27:39;;;;;;;;;;;;;;;9.04;76.52;101872.97;7356412;19;19934;-63
2023/04/20 05:30:07;;;;;;;;;;;;;;;9.06;76.53;101870.25;7353338;19;19926;-63
2023/04/20 05:32:46;;;;;;;;;;;;;;;9.06;76.20;101878.97;7355282;19;19915;-63
2023/04/20 05:35:17;;;;;;;;;;;;;;;9.08;76.31;101881.50;7357437;19;19938;-63
2023/04/20 05:37:47;;;;;;;;;;;;;;;9.12;77.56;101875.03;7358410;19;19926;-63
2023/04/20 05:40:14;;;;;;;;;;;;;;;9.17;75.70;101871.13;7355485;19;19934;-62
2023/04/20 05:42:41;;;;;;;;;;;;;;;9.21;76.09;101869.06;7357805;19;19937;-63
2023/04/20 05:45:09;;;;;;;;;;;;;;;9.23;75.88;101875.91;7352616;19;19922;-63
2023/04/20 05:47:36;;;;;;;;;;;;;;;9.27;74.43;101876.50;7357041;19;19933;-63
2023/04/20 05:50:04;;;;;;;;;;;;;;;9.30;75.04;101886.75;7355155;19;21130;-62
2023/04/20 05:52:30;;;;;;;;;;;;;;;9.32;74.89;101875.19;7355350;19;20572;-63
2023/04/20 05:54:58;;;;;;;;;;;;;;;9.36;75.24;101871.34;7355433;19;19937;-63
2023/04/20 05:57:25;;;;;;;;;;;;;;;9.35;74.19;101877.56;7359112;19;20788;-64
2023/04/20 05:59:54;;;;;;;;;;;;;;;9.42;74.91;101872.69;7355117;19;19918;-65
2023/04/20 06:02:21;;;;;;;;;;;;;;;9.42;74.54;101875.31;7362178;19;20355;-62
2023/04/20 06:04:49;;;;;;;;;;;;;;;9.45;73.96;101870.63;7361218;19;20332;-63
2023/04/20 06:07:16;;;;;;;;;;;;;;;9.51;74.55;101871.94;7363717;19;20356;-62
2023/04/20 06:09:43;;;;;;;;;;;;;;;9.56;72.81;101876.84;7360733;19;19939;-64
2023/04/20 06:12:10;;;;;;;;;;;;;;;9.57;73.00;101878.53;7365788;19;19919;-64
2023/04/20 06:14:37;;;;;;;;;;;;;;;9.61;72.36;101887.81;7360836;19;20527;-62
2023/04/20 06:17:04;;;;;;;;;;;;;;;9.65;73.33;101884.03;7364341;19;19926;-63
2023/04/20 06:19:32;;;;;;;;;;;;;;;9.70;73.91;101892.38;7363352;19;19926;-63
2023/04/20 06:21:59;;;;;;;;;;;;;;;9.77;72.04;101890.94;7364807;19;19919;-63
2023/04/20 06:24:26;;;;;;;;;;;;;;;9.83;71.37;101888.66;7361673;19;20279;-63
2023/04/20 06:26:53;;;;;;;;;;;;;;;9.86;71.43;101891.03;7364755;19;20246;-63
2023/04/20 06:29:20;;;;;;;;;;;;;;;9.86;70.71;101887.56;7359487;19;19919;-63
2023/04/20 06:31:47;;;;;;;;;;;;;;;9.89;71.09;101889.97;7364638;19;20619;-63
2023/04/20 06:34:15;;;;;;;;;;;;;;;9.99;70.59;101890.06;7356630;19;21238;-63
2023/04/20 06:36:42;;;;;;;;;;;;;;;10.41;69.55;101901.59;7361541;19;19915;-62
2023/04/20 06:39:11;;;;;;;;;;;;;;;10.87;66.41;101886.28;7360214;19;19918;-63
2023/04/20 06:41:38;;;;;;;;;;;;;;;11.02;65.56;101894.72;7359741;19;19936;-62
2023/04/20 06:44:05;;;;;;;;;;;;;;;11.14;65.18;101888.38;7358887;19;19923;-63
2023/04/20 06:46:32;;;;;;;;;;;;;;;11.50;63.48;101895.78;7364359;19;19919;-63
2023/04/20 06:49:00;;;;;;;;;;;;;;;11.77;62.60;101889.13;7363079;19;20360;-64
2023/04/20 06:51:28;;;;;;;;;;;;;;;11.89;63.02;101888.84;7361454;19;19959;-62
2023/04/20 06:53:55;;;;;;;;;;;;;;;12.41;61.18;101892.97;7357627;19;19978;-62
2023/04/20 06:56:22;;;;;;;;;;;;;;;12.76;59.97;101888.94;7360395;19;19927;-62
2023/04/20 06:58:49;;;;;;;;;;;;;;;13.01;60.28;101885.69;7358113;19;20219;-63
2023/04/20 07:01:16;;;;;;;;;;;;;;;13.30;60.33;101895.41;7359804;19;19940;-61
2023/04/20 07:03:45;;;;;;;;;;;;;;;13.50;57.45;101886.44;7359355;19;20469;-62
2023/04/20 07:06:13;;;;;;;;;;;;;;;13.76;57.74;101891.88;7361765;19;19955;-62
2023/04/20 07:08:40;;;;;;;;;;;;;;;13.80;56.39;101886.13;7362820;19;19922;-62
2023/04/20 07:11:07;;;;;;;;;;;;;;;13.82;56.52;101892.09;7361169;19;19922;-65
2023/04/20 07:13:34;;;;;;;;;;;;;;;13.85;57.40;101897.13;7359851;19;19986;-62
2023/04/20 07:16:02;;;;;;;;;;;;;;;14.09;56.28;101901.84;7356415;19;19914;-63
2023/04/20 07:18:30;;;;;;;;;;;;;;;13.78;56.67;101887.25;7360663;19;19923;-62
2023/04/20 07:21:00;;;;;;;;;;;;;;;13.48;58.30;101889.19;7358549;19;19947;-63
2023/04/20 07:23:27;;;;;;;;;;;;;;;13.04;59.42;101892.50;7361672;19;20863;-63
2023/04/20 07:25:55;;;;;;;;;;;;;;;12.87;60.50;101894.06;7357081;19;19915;-63
2023/04/20 07:28:22;;;;;;;;;;;;;;;12.43;61.64;101885.75;7359773;19;19926;-62
2023/04/20 07:30:50;;;;;;;;;;;;;;;12.23;63.05;101880.59;7350100;19;20402;-62
2023/04/20 07:33:17;;;;;;;;;;;;;;;12.35;63.22;101880.31;7362527;19;21742;-64
2023/04/20 07:35:44;;;;;;;;;;;;;;;12.41;63.36;101876.31;7357696;19;20521;-62
2023/04/20 07:38:14;;;;;;;;;;;;;;;12.32;64.23;101875.34;7361035;19;19922;-60
2023/04/20 07:40:41;;;;;;;;;;;;;;;12.24;63.63;101874.38;7359334;19;19925;-63
2023/04/20 07:43:09;;;;;;;;;;;;;;;12.44;62.51;101874.22;7361107;19;19914;-62
2023/04/20 07:45:38;;;;;;;;;;;;;;;12.92;61.21;101873.34;7356743;19;20481;-63
2023/04/20 07:48:05;;;;;;;;;;;;;;;13.67;58.58;101872.41;7358819;19;20479;-61
2023/04/20 07:50:32;;;;;;;;;;;;;;;14.60;57.61;101873.88;7360485;19;20225;-62
2023/04/20 07:52:59;;;;;;;;;;;;;;;15.62;52.20;101880.19;7358698;19;20210;-63
2023/04/20 07:55:27;;;;;;;;;;;;;;;16.36;48.67;101871.41;7358333;19;19940;-64
2023/04/20 07:57:57;;;;;;;;;;;;;;;16.58;47.60;101868.97;7357766;19;20237;-63
2023/04/20 08:00:25;;;;;;;;;;;;;;;17.09;46.73;101865.09;7357368;19;19923;-62
2023/04/20 08:02:53;;;;;;;;;;;;;;;17.89;46.23;101862.31;7358337;19;19922;-62
2023/04/20 08:05:21;;;;;;;;;;;;;;;18.38;43.24;101869.03;7355381;19;19925;-63
2023/04/20 08:07:48;;;;;;;;;;;;;;;18.35;41.07;101856.03;7361183;19;19991;-63
2023/04/20 08:10:16;;;;;;;;;;;;;;;17.84;42.29;101859.34;7356876;19;20124;-63
2023/04/20 08:12:43;;;;;;;;;;;;;;;17.67;42.99;101869.28;7358662;19;19923;-60
2023/04/20 08:15:10;;;;;;;;;;;;;;;17.74;43.28;101869.41;7354188;19;19915;-61
2023/04/20 08:17:37;;;;;;;;;;;;;;;16.84;42.32;101871.47;7359374;19;19919;-62
2023/04/20 08:20:05;;;;;;;;;;;;;;;16.50;43.13;101861.00;7358875;19;19937;-63
2023/04/20 08:22:32;;;;;;;;;;;;;;;16.17;44.50;101856.63;7359030;19;19922;-62
2023/04/20 08:25:00;;;;;;;;;;;;;;;15.78;44.40;101859.03;7354787;19;19957;-62
2023/04/20 08:27:29;;;;;;;;;;;;;;;15.39;45.03;101851.53;7360750;19;19927;-63
2023/04/20 08:29:56;;;;;;;;;;;;;;;14.70;46.38;101862.22;7355220;19;19919;-63
2023/04/20 08:32:25;;;;;;;;;;;;;;;14.30;48.13;101851.25;7359095;19;20259;-64
2023/04/20 08:34:53;;;;;;;;;;;;;;;14.00;48.48;101845.34;7357734;19;20383;-63
2023/04/20 08:37:20;;;;;;;;;;;;;;;13.71;47.62;101844.72;7360322;19;21041;-64
2023/04/20 08:39:47;;;;;;;;;;;;;;;13.56;48.24;101854.91;7359803;19;19923;-63
2023/04/20 08:42:15;;;;;;;;;;;;;;;13.34;47.43;101844.75;7358868;19;20596;-61
2023/04/20 08:44:43;;;;;;;;;;;;;;;13.09;47.51;101846.19;7354045;19;19930;-62
2023/04/20 08:47:10;;;;;;;;;;;;;;;12.89;46.94;101849.03;7358680;19;20254;-62
2023/04/20 08:49:39;;;;;;;;;;;;;;;12.79;47.65;101839.31;7356463;19;19927;-64
2023/04/20 08:52:09;;;;;;;;;;;;;;;12.70;47.31;101828.75;7353983;19;19915;-63
2023/04/20 08:54:37;;;;;;;;;;;;;;;12.76;48.43;101834.31;7356772;19;20006;-60
2023/04/20 08:57:15;;;;;;;;;;;;;;;12.79;48.41;101827.91;7356273;19;20495;-63
2023/04/20 08:59:42;;;;;;;;;;;;;;;12.86;48.84;101819.28;7354102;19;19929;-64
2023/04/20 09:02:10;;;;;;;;;;;;;;;13.00;48.73;101822.44;7358117;19;19919;-64
2023/04/20 09:04:39;;;;;;;;;;;;;;;13.14;48.78;101814.91;7357027;19;19927;-62
2023/04/20 09:07:16;;;;;;;;;;;;;;;13.18;46.68;101821.56;7356683;19;21268;-63
2023/04/20 09:09:50;;;;;;;;;;;;;;;13.06;45.79;101822.69;7353843;19;19990;-61
2023/04/20 09:12:17;;;;;;;;;;;;;;;13.18;46.19;101808.34;7359551;19;20022;-63
2023/04/20 09:14:48;;;;;;;;;;;;;;;13.18;45.35;101815.44;7353267;19;20344;-62
2023/04/20 09:17:16;;;;;;;;;;;;;;;13.34;45.13;101809.53;7357948;19;19923;-61
2023/04/20 09:19:44;;;;;;;;;;;;;;;13.44;45.25;101812.97;7358890;19;20553;-64
2023/04/20 09:22:11;;;;;;;;;;;;;;;13.50;44.38;101804.47;7356717;19;19915;-62
2023/04/20 09:24:40;;;;;;;;;;;;;;;13.71;44.69;101794.44;7356613;19;19919;-63
2023/04/20 09:27:10;;;;;;;;;;;;;;;13.93;44.88;101794.00;7356867;19;20382;-63
2023/04/20 09:29:37;;;;;;;;;;;;;;;14.11;43.80;101801.97;7355647;19;19939;-62
2023/04/20 09:32:04;;;;;;;;;;;;;;;14.28;41.96;101794.97;7352823;19;19918;-62
2023/04/20 09:34:42;;;;;;;;;;;;;;;14.36;41.99;101810.94;7356412;19;19919;-62
2023/04/20 09:37:13;;;;;;;;;;;;;;;14.40;40.50;101785.84;7365238;19;20033;-61
2023/04/20 09:39:41;;;;;;;;;;;;;;;14.46;40.30;101794.00;7363021;19;19918;-62
2023/04/20 09:42:11;;;;;;;;;;;;;;;14.49;40.41;101806.94;7365431;19;20292;-63
2023/04/20 09:44:39;;;;;;;;;;;;;;;14.39;39.76;101789.47;7359578;19;19923;-64
2023/04/20 09:47:07;;;;;;;;;;;;;;;14.23;39.56;101776.91;7363716;19;19922;-64
2023/04/20 09:49:34;;;;;;;;;;;;;;;14.23;39.75;101784.84;7361080;19;19921;-63
2023/04/20 09:52:02;;;;;;;;;;;;;;;14.36;38.90;101771.22;7364617;19;19978;-62
2023/04/20 09:54:30;;;;;;;;;;;;;;;14.47;38.71;101765.72;7360395;19;21656;-63
2023/04/20 09:56:58;;;;;;;;;;;;;;;14.50;38.90;101762.75;7362896;19;20195;-63
2023/04/20 09:59:26;;;;;;;;;;;;;;;14.50;38.68;101763.56;7361401;19;19919;-62
2023/04/20 10:01:53;;;;;;;;;;;;;;;14.32;39.25;101748.69;7361387;19;20335;-63
2023/04/20 10:04:21;;;;;;;;;;;;;;;14.26;39.17;101746.66;7362158;19;19923;-62
2023/04/20 10:06:51;;;;;;;;;;;;;;;14.37;40.09;101735.84;7362888;19;20384;-63
2023/04/20 10:09:21;;;;;;;;;;;;;;;14.50;40.09;101731.78;7363552;19;19923;-61
2023/04/20 10:11:48;;;;;;;;;;;;;;;14.64;39.84;101721.59;7359617;19;19975;-63
2023/04/20 10:14:22;;;;;;;;;;;;;;;14.76;39.47;101726.47;7360162;19;20430;-60
2023/04/20 10:16:52;;;;;;;;;;;;;;;14.84;39.38;101734.47;7364744;19;19914;-63
2023/04/20 10:19:19;;;;;;;;;;;;;;;14.79;39.72;101723.50;7363053;19;20471;-61
2023/04/20 10:21:47;;;;;;;;;;;;;;;14.79;38.81;101704.13;7363009;19;19961;-63
2023/04/20 10:24:15;;;;;;;;;;;;;;;14.85;39.35;101696.38;7362298;19;19970;-62
2023/04/20 10:26:46;;;;;;;;;;;;;;;14.90;38.63;101696.72;7364161;19;19922;-64
2023/04/20 10:29:16;;;;;;;;;;;;;;;14.97;39.00;101683.69;7356603;19;20307;-64
2023/04/20 10:31:43;;;;;;;;;;;;;;;15.03;38.46;101695.47;7361271;19;19925;-63
2023/04/20 10:34:10;;;;;;;;;;;;;;;15.06;38.28;101706.56;7360482;19;19978;-62
2023/04/20 10:36:38;;;;;;;;;;;;;;;14.94;37.86;101687.47;7364616;19;19923;-63
2023/04/20 10:39:08;;;;;;;;;;;;;;;14.81;37.71;101695.03;7362449;19;19919;-62
2023/04/20 10:41:35;;;;;;;;;;;;;;;14.79;37.41;101686.41;7362933;19;19926;-61
2023/04/20 10:44:06;;;;;;;;;;;;;;;14.76;37.99;101672.66;7359035;19;20424;-70
2023/04/20 10:46:33;;;;;;;;;;;;;;;14.74;38.58;101667.50;7360912;19;19954;-63
2023/04/20 10:49:01;;;;;;;;;;;;;;;14.81;38.38;101665.91;7360426;19;19921;-62
2023/04/20 10:51:28;;;;;;;;;;;;;;;14.86;38.59;101657.47;7359102;19;19930;-63
2023/04/20 10:53:58;;;;;;;;;;;;;;;14.93;39.50;101656.66;7359134;19;20395;-62
2023/04/20 10:56:26;;;;;;;;;;;;;;;15.03;39.70;101647.75;7357956;19;19933;-64
2023/04/20 10:58:53;;;;;;;;;;;;;;;15.06;38.83;101642.97;7359580;19;19922;-65
2023/04/20 11:01:20;;;;;;;;;;;;;;;15.14;39.20;101666.00;7356337;19;19990;-66
2023/04/20 11:03:50;;;;;;;;;;;;;;;15.06;38.67;101645.59;7364172;19;20036;-66
2023/04/20 11:06:17;;;;;;;;;;;;;;;15.15;39.10;101641.97;7357598;19;20264;-65
2023/04/20 11:08:45;;;;;;;;;;;;;;;15.20;39.72;101658.22;7359946;19;19947;-66
2023/04/20 11:11:15;;;;;;;;;;;;;;;15.28;39.57;101650.31;7364155;19;20304;-64
2023/04/20 11:13:42;;;;;;;;;;;;;;;15.19;38.33;101637.16;7361519;19;20341;-64
2023/04/20 11:16:11;;;;;;;;;;;;;;;15.24;38.14;101640.16;7360333;19;19923;-64
2023/04/20 11:18:41;;;;;;;;;;;;;;;15.22;38.63;101632.41;7358753;19;19990;-65
2023/04/20 11:21:08;;;;;;;;;;;;;;;15.11;38.88;101623.91;7361315;19;20285;-65
2023/04/20 11:23:37;;;;;;;;;;;;;;;15.22;38.58;101628.91;7358603;19;19979;-65
2023/04/20 11:26:04;;;;;;;;;;;;;;;15.28;39.22;101622.97;7356258;19;20447;-64
2023/04/20 11:28:33;;;;;;;;;;;;;;;15.31;38.34;101628.75;7359002;19;19926;-65
2023/04/20 11:31:00;;;;;;;;;;;;;;;15.44;39.22;101627.44;7358553;19;19941;-65
2023/04/20 11:33:28;;;;;;;;;;;;;;;15.52;39.38;101609.75;7361685;19;19926;-64
2023/04/20 11:35:56;;;;;;;;;;;;;;;15.50;39.30;101638.22;7361311;19;19914;-65
2023/04/20 11:38:26;;;;;;;;;;;;;;;15.50;39.92;101601.06;7359916;19;19915;-65
2023/04/20 11:40:54;;;;;;;;;;;;;;;15.52;39.18;101603.59;7357412;19;19930;-65
2023/04/20 11:43:22;;;;;;;;;;;;;;;15.60;39.77;101590.31;7360276;19;19935;-65
2023/04/20 11:45:49;;;;;;;;;;;;;;;15.67;39.95;101592.16;7353266;19;19919;-65
2023/04/20 11:48:17;;;;;;;;;;;;;;;15.73;39.76;101594.16;7358636;19;19940;-65
2023/04/20 11:50:45;;;;;;;;;;;;;;;15.83;39.85;101601.94;7360646;19;20323;-65
2023/04/20 11:53:13;;;;;;;;;;;;;;;15.80;39.08;101587.16;7360813;19;19926;-65
2023/04/20 11:55:40;;;;;;;;;;;;;;;15.78;38.83;101577.72;7358178;19;19919;-65
2023/04/20 11:58:08;;;;;;;;;;;;;;;15.68;38.70;101577.91;7358700;19;19919;-65
2023/04/20 12:00:35;;;;;;;;;;;;;;;15.61;38.62;101560.97;7358047;19;20416;-66
2023/04/20 12:03:02;;;;;;;;;;;;;;;15.51;38.36;101568.28;7360272;19;19919;-65
2023/04/20 12:05:30;;;;;;;;;;;;;;;15.56;38.51;101573.09;7358473;19;19938;-66
2023/04/20 12:07:57;;;;;;;;;;;;;;;15.53;38.17;101552.22;7357617;19;19942;-65
2023/04/20 12:10:24;;;;;;;;;;;;;;;15.58;38.16;101558.69;7359699;19;19975;-65
2023/04/20 12:12:52;;;;;;;;;;;;;;;15.65;38.10;101550.84;7361982;19;20358;-65
2023/04/20 12:15:19;;;;;;;;;;;;;;;15.64;36.80;101558.00;7357472;19;20531;-65
2023/04/20 12:17:47;;;;;;;;;;;;;;;15.56;36.78;101541.25;7363443;19;19998;-65
2023/04/20 12:20:14;;;;;;;;;;;;;;;15.67;36.78;101544.41;7361084;19;20513;-65
2023/04/20 12:22:41;;;;;;;;;;;;;;;15.69;35.95;101550.38;7361823;19;20273;-65
2023/04/20 12:25:08;;;;;;;;;;;;;;;15.73;36.21;101540.25;7361693;19;19923;-66
2023/04/20 12:27:36;;;;;;;;;;;;;;;15.76;36.43;101529.28;7357178;19;20338;-64
2023/04/20 12:30:03;;;;;;;;;;;;;;;15.76;35.90;101530.13;7357857;19;19990;-65
2023/04/20 12:32:30;;;;;;;;;;;;;;;15.82;36.16;101528.63;7357323;19;19915;-65
2023/04/20 12:34:58;;;;;;;;;;;;;;;15.89;36.03;101521.63;7355720;19;19914;-64
2023/04/20 12:37:26;;;;;;;;;;;;;;;15.98;36.22;101530.41;7357653;19;19979;-65
2023/04/20 12:39:53;;;;;;;;;;;;;;;16.06;35.46;101512.59;7356455;19;19919;-64
2023/04/20 12:42:20;;;;;;;;;;;;;;;16.15;36.12;101518.72;7357789;19;19994;-65
2023/04/20 12:44:48;;;;;;;;;;;;;;;16.24;35.00;101507.91;7357030;19;19929;-66